sensor_id;sensor_type;location;lat;lon;timestamp;P1;durP1;ratioP1;P2;durP2;ratioP2
74196;SDS011;62555;52.678;4.900;2023-04-24T00:02:13;0.70;;;0.60;;
74196;SDS011;62555;52.678;4.900;2023-04-24T00:04:39;1.48;;;0.88;;
74196;SDS011;62555;52.678;4.900;2023-04-24T00:07:09;1.17;;;0.90;;
74196;SDS011;62555;52.678;4.900;2023-04-24T00:09:34;0.70;;;0.65;;
74196;SDS011;62555;52.678;4.900;2023-04-24T00:12:00;1.30;;;0.70;;
74196;SDS011;62555;52.678;4.900;2023-04-24T00:14:26;1.45;;;0.80;;
74196;SDS011;62555;52.678;4.900;2023-04-24T00:16:52;0.93;;;0.83;;
74196;SDS011;62555;52.678;4.900;2023-04-24T00:19:17;0.88;;;0.75;;
74196;SDS011;62555;52.678;4.900;2023-04-24T00:21:42;1.53;;;0.77;;
74196;SDS011;62555;52.678;4.900;2023-04-24T00:24:07;1.10;;;0.87;;
74196;SDS011;62555;52.678;4.900;2023-04-24T00:26:34;1.17;;;0.77;;
74196;SDS011;62555;52.678;4.900;2023-04-24T00:28:59;1.15;;;0.60;;
74196;SDS011;62555;52.678;4.900;2023-04-24T00:31:24;1.00;;;0.70;;
74196;SDS011;62555;52.678;4.900;2023-04-24T00:33:49;1.53;;;0.63;;
74196;SDS011;62555;52.678;4.900;2023-04-24T00:36:15;1.43;;;0.63;;
74196;SDS011;62555;52.678;4.900;2023-04-24T00:38:40;0.63;;;0.63;;
74196;SDS011;62555;52.678;4.900;2023-04-24T00:41:05;2.60;;;0.97;;
74196;SDS011;62555;52.678;4.900;2023-04-24T00:43:31;0.90;;;0.73;;
74196;SDS011;62555;52.678;4.900;2023-04-24T00:45:56;0.93;;;0.70;;
74196;SDS011;62555;52.678;4.900;2023-04-24T00:48:22;1.00;;;0.50;;
74196;SDS011;62555;52.678;4.900;2023-04-24T00:50:48;0.70;;;0.50;;
74196;SDS011;62555;52.678;4.900;2023-04-24T00:53:13;1.27;;;0.67;;
74196;SDS011;62555;52.678;4.900;2023-04-24T00:55:39;1.13;;;0.80;;
74196;SDS011;62555;52.678;4.900;2023-04-24T00:58:04;0.60;;;0.55;;
74196;SDS011;62555;52.678;4.900;2023-04-24T01:00:30;0.65;;;0.65;;
74196;SDS011;62555;52.678;4.900;2023-04-24T01:02:55;0.65;;;0.60;;
74196;SDS011;62555;52.678;4.900;2023-04-24T01:05:22;0.85;;;0.52;;
74196;SDS011;62555;52.678;4.900;2023-04-24T01:07:47;1.13;;;0.70;;
74196;SDS011;62555;52.678;4.900;2023-04-24T01:10:14;0.93;;;0.55;;
74196;SDS011;62555;52.678;4.900;2023-04-24T01:12:39;1.25;;;0.70;;
74196;SDS011;62555;52.678;4.900;2023-04-24T01:15:05;2.23;;;0.90;;
74196;SDS011;62555;52.678;4.900;2023-04-24T01:17:31;2.10;;;0.68;;
74196;SDS011;62555;52.678;4.900;2023-04-24T01:19:57;0.60;;;0.50;;
74196;SDS011;62555;52.678;4.900;2023-04-24T01:22:22;0.75;;;0.47;;
74196;SDS011;62555;52.678;4.900;2023-04-24T01:24:48;0.93;;;0.70;;
74196;SDS011;62555;52.678;4.900;2023-04-24T01:27:13;0.63;;;0.57;;
74196;SDS011;62555;52.678;4.900;2023-04-24T01:29:38;0.90;;;0.60;;
74196;SDS011;62555;52.678;4.900;2023-04-24T01:32:04;1.92;;;0.70;;
74196;SDS011;62555;52.678;4.900;2023-04-24T01:34:29;0.60;;;0.55;;
74196;SDS011;62555;52.678;4.900;2023-04-24T01:36:54;0.98;;;0.75;;
74196;SDS011;62555;52.678;4.900;2023-04-24T01:39:21;0.85;;;0.77;;
74196;SDS011;62555;52.678;4.900;2023-04-24T01:41:48;1.02;;;0.60;;
74196;SDS011;62555;52.678;4.900;2023-04-24T01:44:14;1.00;;;0.55;;
74196;SDS011;62555;52.678;4.900;2023-04-24T01:46:39;1.73;;;0.50;;
74196;SDS011;62555;52.678;4.900;2023-04-24T01:49:04;1.90;;;0.70;;
74196;SDS011;62555;52.678;4.900;2023-04-24T01:51:30;1.30;;;0.60;;
74196;SDS011;62555;52.678;4.900;2023-04-24T01:53:55;1.27;;;0.60;;
74196;SDS011;62555;52.678;4.900;2023-04-24T01:56:21;1.03;;;0.60;;
74196;SDS011;62555;52.678;4.900;2023-04-24T01:58:47;0.50;;;0.50;;
74196;SDS011;62555;52.678;4.900;2023-04-24T02:01:18;1.10;;;0.60;;
74196;SDS011;62555;52.678;4.900;2023-04-24T02:03:44;0.90;;;0.40;;
74196;SDS011;62555;52.678;4.900;2023-04-24T02:06:09;1.07;;;0.70;;
74196;SDS011;62555;52.678;4.900;2023-04-24T02:08:34;0.47;;;0.40;;
74196;SDS011;62555;52.678;4.900;2023-04-24T02:10:59;1.90;;;0.90;;
74196;SDS011;62555;52.678;4.900;2023-04-24T02:13:26;1.40;;;0.80;;
74196;SDS011;62555;52.678;4.900;2023-04-24T02:15:51;0.50;;;0.50;;
74196;SDS011;62555;52.678;4.900;2023-04-24T02:18:17;0.40;;;0.40;;
74196;SDS011;62555;52.678;4.900;2023-04-24T02:20:42;0.80;;;0.60;;
74196;SDS011;62555;52.678;4.900;2023-04-24T02:23:07;0.97;;;0.60;;
74196;SDS011;62555;52.678;4.900;2023-04-24T02:25:33;0.60;;;0.50;;
74196;SDS011;62555;52.678;4.900;2023-04-24T02:27:58;1.33;;;0.77;;
74196;SDS011;62555;52.678;4.900;2023-04-24T02:30:23;0.60;;;0.40;;
74196;SDS011;62555;52.678;4.900;2023-04-24T02:32:48;0.63;;;0.50;;
74196;SDS011;62555;52.678;4.900;2023-04-24T02:35:14;0.60;;;0.60;;
74196;SDS011;62555;52.678;4.900;2023-04-24T02:37:39;0.85;;;0.60;;
74196;SDS011;62555;52.678;4.900;2023-04-24T02:40:05;1.13;;;0.57;;
74196;SDS011;62555;52.678;4.900;2023-04-24T02:42:30;0.73;;;0.70;;
74196;SDS011;62555;52.678;4.900;2023-04-24T02:44:55;0.70;;;0.50;;
74196;SDS011;62555;52.678;4.900;2023-04-24T02:47:21;1.55;;;0.60;;
74196;SDS011;62555;52.678;4.900;2023-04-24T02:49:46;1.13;;;0.50;;
74196;SDS011;62555;52.678;4.900;2023-04-24T02:52:11;0.97;;;0.50;;
74196;SDS011;62555;52.678;4.900;2023-04-24T02:54:36;0.80;;;0.50;;
74196;SDS011;62555;52.678;4.900;2023-04-24T02:57:01;0.50;;;0.50;;
74196;SDS011;62555;52.678;4.900;2023-04-24T02:59:26;0.60;;;0.57;;
74196;SDS011;62555;52.678;4.900;2023-04-24T03:01:53;0.52;;;0.50;;
74196;SDS011;62555;52.678;4.900;2023-04-24T03:04:18;0.83;;;0.70;;
74196;SDS011;62555;52.678;4.900;2023-04-24T03:06:45;0.90;;;0.50;;
74196;SDS011;62555;52.678;4.900;2023-04-24T03:09:10;0.93;;;0.60;;
74196;SDS011;62555;52.678;4.900;2023-04-24T03:11:35;0.57;;;0.40;;
74196;SDS011;62555;52.678;4.900;2023-04-24T03:14:01;0.80;;;0.60;;
74196;SDS011;62555;52.678;4.900;2023-04-24T03:16:26;1.27;;;0.60;;
74196;SDS011;62555;52.678;4.900;2023-04-24T03:18:51;1.43;;;0.50;;
74196;SDS011;62555;52.678;4.900;2023-04-24T03:21:17;1.33;;;0.60;;
74196;SDS011;62555;52.678;4.900;2023-04-24T03:23:42;1.17;;;0.57;;
74196;SDS011;62555;52.678;4.900;2023-04-24T03:26:07;0.97;;;0.70;;
74196;SDS011;62555;52.678;4.900;2023-04-24T03:28:32;1.02;;;0.50;;
74196;SDS011;62555;52.678;4.900;2023-04-24T03:30:57;0.70;;;0.45;;
74196;SDS011;62555;52.678;4.900;2023-04-24T03:33:22;0.60;;;0.60;;
74196;SDS011;62555;52.678;4.900;2023-04-24T03:35:47;0.83;;;0.50;;
74196;SDS011;62555;52.678;4.900;2023-04-24T03:38:13;0.83;;;0.50;;
74196;SDS011;62555;52.678;4.900;2023-04-24T03:40:38;0.82;;;0.63;;
74196;SDS011;62555;52.678;4.900;2023-04-24T03:43:03;0.50;;;0.50;;
74196;SDS011;62555;52.678;4.900;2023-04-24T03:45:28;0.87;;;0.60;;
74196;SDS011;62555;52.678;4.900;2023-04-24T03:47:53;1.73;;;0.60;;
74196;SDS011;62555;52.678;4.900;2023-04-24T03:50:19;0.83;;;0.60;;
74196;SDS011;62555;52.678;4.900;2023-04-24T03:52:44;1.03;;;0.60;;
74196;SDS011;62555;52.678;4.900;2023-04-24T03:55:09;1.03;;;0.70;;
74196;SDS011;62555;52.678;4.900;2023-04-24T03:57:37;0.80;;;0.63;;
74196;SDS011;62555;52.678;4.900;2023-04-24T04:00:03;0.63;;;0.50;;
74196;SDS011;62555;52.678;4.900;2023-04-24T04:02:30;1.10;;;0.60;;
74196;SDS011;62555;52.678;4.900;2023-04-24T04:04:55;0.57;;;0.55;;
74196;SDS011;62555;52.678;4.900;2023-04-24T04:07:20;0.90;;;0.65;;
74196;SDS011;62555;52.678;4.900;2023-04-24T04:09:45;0.93;;;0.70;;
74196;SDS011;62555;52.678;4.900;2023-04-24T04:12:10;0.60;;;0.50;;
74196;SDS011;62555;52.678;4.900;2023-04-24T04:14:35;0.87;;;0.70;;
74196;SDS011;62555;52.678;4.900;2023-04-24T04:17:01;1.30;;;0.60;;
74196;SDS011;62555;52.678;4.900;2023-04-24T04:19:26;0.73;;;0.70;;
74196;SDS011;62555;52.678;4.900;2023-04-24T04:21:51;0.90;;;0.73;;
74196;SDS011;62555;52.678;4.900;2023-04-24T04:24:18;1.52;;;0.65;;
74196;SDS011;62555;52.678;4.900;2023-04-24T04:26:43;1.10;;;0.70;;
74196;SDS011;62555;52.678;4.900;2023-04-24T04:29:11;1.15;;;0.90;;
74196;SDS011;62555;52.678;4.900;2023-04-24T04:31:37;1.40;;;0.90;;
74196;SDS011;62555;52.678;4.900;2023-04-24T04:34:02;1.07;;;0.80;;
74196;SDS011;62555;52.678;4.900;2023-04-24T04:36:27;1.58;;;0.85;;
74196;SDS011;62555;52.678;4.900;2023-04-24T04:38:54;0.70;;;0.70;;
74196;SDS011;62555;52.678;4.900;2023-04-24T04:41:19;0.82;;;0.60;;
74196;SDS011;62555;52.678;4.900;2023-04-24T04:43:45;0.70;;;0.65;;
74196;SDS011;62555;52.678;4.900;2023-04-24T04:46:11;0.70;;;0.70;;
74196;SDS011;62555;52.678;4.900;2023-04-24T04:48:36;1.40;;;0.77;;
74196;SDS011;62555;52.678;4.900;2023-04-24T04:51:02;1.30;;;0.75;;
74196;SDS011;62555;52.678;4.900;2023-04-24T04:53:27;0.93;;;0.60;;
74196;SDS011;62555;52.678;4.900;2023-04-24T04:55:52;0.80;;;0.60;;
74196;SDS011;62555;52.678;4.900;2023-04-24T04:58:17;0.90;;;0.67;;
74196;SDS011;62555;52.678;4.900;2023-04-24T05:00:43;0.80;;;0.60;;
74196;SDS011;62555;52.678;4.900;2023-04-24T05:03:08;0.80;;;0.70;;
74196;SDS011;62555;52.678;4.900;2023-04-24T05:05:33;1.10;;;0.68;;
74196;SDS011;62555;52.678;4.900;2023-04-24T05:07:58;1.57;;;1.07;;
74196;SDS011;62555;52.678;4.900;2023-04-24T05:10:23;2.60;;;1.90;;
74196;SDS011;62555;52.678;4.900;2023-04-24T05:12:48;2.43;;;1.80;;
74196;SDS011;62555;52.678;4.900;2023-04-24T05:15:14;3.88;;;2.05;;
74196;SDS011;62555;52.678;4.900;2023-04-24T05:17:39;4.93;;;2.83;;
74196;SDS011;62555;52.678;4.900;2023-04-24T05:20:05;4.78;;;2.63;;
74196;SDS011;62555;52.678;4.900;2023-04-24T05:22:31;3.78;;;2.78;;
74196;SDS011;62555;52.678;4.900;2023-04-24T05:24:56;3.92;;;3.40;;
74196;SDS011;62555;52.678;4.900;2023-04-24T05:27:22;3.53;;;2.88;;
74196;SDS011;62555;52.678;4.900;2023-04-24T05:29:47;5.93;;;3.87;;
74196;SDS011;62555;52.678;4.900;2023-04-24T05:32:12;3.80;;;3.13;;
74196;SDS011;62555;52.678;4.900;2023-04-24T05:34:37;4.03;;;3.22;;
74196;SDS011;62555;52.678;4.900;2023-04-24T05:37:02;5.87;;;3.77;;
74196;SDS011;62555;52.678;4.900;2023-04-24T05:39:28;6.10;;;3.42;;
74196;SDS011;62555;52.678;4.900;2023-04-24T05:41:53;4.10;;;3.00;;
74196;SDS011;62555;52.678;4.900;2023-04-24T05:44:19;5.53;;;3.10;;
74196;SDS011;62555;52.678;4.900;2023-04-24T05:46:45;4.37;;;2.87;;
74196;SDS011;62555;52.678;4.900;2023-04-24T05:49:10;3.47;;;3.00;;
74196;SDS011;62555;52.678;4.900;2023-04-24T05:51:35;3.17;;;1.90;;
74196;SDS011;62555;52.678;4.900;2023-04-24T05:54:00;3.60;;;2.50;;
74196;SDS011;62555;52.678;4.900;2023-04-24T05:56:26;6.80;;;2.85;;
74196;SDS011;62555;52.678;4.900;2023-04-24T05:58:51;3.93;;;2.87;;
74196;SDS011;62555;52.678;4.900;2023-04-24T06:01:17;5.30;;;2.57;;
74196;SDS011;62555;52.678;4.900;2023-04-24T06:03:43;2.33;;;1.92;;
74196;SDS011;62555;52.678;4.900;2023-04-24T06:06:08;3.40;;;2.15;;
74196;SDS011;62555;52.678;4.900;2023-04-24T06:08:34;4.93;;;2.30;;
74196;SDS011;62555;52.678;4.900;2023-04-24T06:10:59;3.25;;;2.35;;
74196;SDS011;62555;52.678;4.900;2023-04-24T06:13:25;3.47;;;2.33;;
74196;SDS011;62555;52.678;4.900;2023-04-24T06:15:50;3.40;;;2.03;;
74196;SDS011;62555;52.678;4.900;2023-04-24T06:18:15;2.75;;;1.83;;
74196;SDS011;62555;52.678;4.900;2023-04-24T06:20:40;3.23;;;2.00;;
74196;SDS011;62555;52.678;4.900;2023-04-24T06:23:06;2.77;;;2.10;;
74196;SDS011;62555;52.678;4.900;2023-04-24T06:25:31;3.13;;;1.93;;
74196;SDS011;62555;52.678;4.900;2023-04-24T06:27:56;3.57;;;2.30;;
74196;SDS011;62555;52.678;4.900;2023-04-24T06:30:21;3.97;;;2.42;;
74196;SDS011;62555;52.678;4.900;2023-04-24T06:32:47;3.33;;;2.43;;
74196;SDS011;62555;52.678;4.900;2023-04-24T06:35:12;2.83;;;1.70;;
74196;SDS011;62555;52.678;4.900;2023-04-24T06:37:38;3.90;;;2.27;;
74196;SDS011;62555;52.678;4.900;2023-04-24T06:40:03;3.92;;;2.40;;
74196;SDS011;62555;52.678;4.900;2023-04-24T06:42:29;3.33;;;2.22;;
74196;SDS011;62555;52.678;4.900;2023-04-24T06:44:54;2.50;;;2.22;;
74196;SDS011;62555;52.678;4.900;2023-04-24T06:47:19;3.57;;;2.30;;
74196;SDS011;62555;52.678;4.900;2023-04-24T06:49:44;2.90;;;2.20;;
74196;SDS011;62555;52.678;4.900;2023-04-24T06:52:10;3.50;;;1.90;;
74196;SDS011;62555;52.678;4.900;2023-04-24T06:54:35;3.08;;;1.70;;
74196;SDS011;62555;52.678;4.900;2023-04-24T06:57:00;3.03;;;2.37;;
74196;SDS011;62555;52.678;4.900;2023-04-24T06:59:26;2.27;;;2.03;;
74196;SDS011;62555;52.678;4.900;2023-04-24T07:01:51;2.67;;;1.98;;
74196;SDS011;62555;52.678;4.900;2023-04-24T07:04:16;3.53;;;2.20;;
74196;SDS011;62555;52.678;4.900;2023-04-24T07:06:42;3.30;;;1.98;;
74196;SDS011;62555;52.678;4.900;2023-04-24T07:09:07;3.83;;;2.30;;
74196;SDS011;62555;52.678;4.900;2023-04-24T07:11:34;3.47;;;2.35;;
74196;SDS011;62555;52.678;4.900;2023-04-24T07:14:00;2.75;;;2.40;;
74196;SDS011;62555;52.678;4.900;2023-04-24T07:16:25;2.33;;;2.10;;
74196;SDS011;62555;52.678;4.900;2023-04-24T07:18:50;3.97;;;2.20;;
74196;SDS011;62555;52.678;4.900;2023-04-24T07:21:16;3.00;;;2.60;;
74196;SDS011;62555;52.678;4.900;2023-04-24T07:23:41;2.47;;;2.27;;
74196;SDS011;62555;52.678;4.900;2023-04-24T07:26:07;2.58;;;2.05;;
74196;SDS011;62555;52.678;4.900;2023-04-24T07:28:32;1.98;;;1.88;;
74196;SDS011;62555;52.678;4.900;2023-04-24T07:30:57;4.17;;;2.20;;
74196;SDS011;62555;52.678;4.900;2023-04-24T07:33:23;2.58;;;2.25;;
74196;SDS011;62555;52.678;4.900;2023-04-24T07:35:48;3.13;;;2.60;;
74196;SDS011;62555;52.678;4.900;2023-04-24T07:38:14;4.93;;;2.47;;
74196;SDS011;62555;52.678;4.900;2023-04-24T07:40:39;2.83;;;2.00;;
74196;SDS011;62555;52.678;4.900;2023-04-24T07:43:04;3.87;;;1.97;;
74196;SDS011;62555;52.678;4.900;2023-04-24T07:45:29;2.33;;;1.63;;
74196;SDS011;62555;52.678;4.900;2023-04-24T07:47:56;3.10;;;2.20;;
74196;SDS011;62555;52.678;4.900;2023-04-24T07:50:21;3.17;;;2.23;;
74196;SDS011;62555;52.678;4.900;2023-04-24T07:52:46;3.03;;;2.35;;
74196;SDS011;62555;52.678;4.900;2023-04-24T07:55:12;2.40;;;2.10;;
74196;SDS011;62555;52.678;4.900;2023-04-24T07:57:37;2.53;;;2.27;;
74196;SDS011;62555;52.678;4.900;2023-04-24T08:00:03;3.77;;;2.40;;
74196;SDS011;62555;52.678;4.900;2023-04-24T08:02:28;2.42;;;2.22;;
74196;SDS011;62555;52.678;4.900;2023-04-24T08:04:54;3.22;;;2.10;;
74196;SDS011;62555;52.678;4.900;2023-04-24T08:07:19;3.35;;;2.05;;
74196;SDS011;62555;52.678;4.900;2023-04-24T08:09:44;3.70;;;1.97;;
74196;SDS011;62555;52.678;4.900;2023-04-24T08:12:09;3.40;;;2.17;;
74196;SDS011;62555;52.678;4.900;2023-04-24T08:14:35;4.37;;;1.90;;
74196;SDS011;62555;52.678;4.900;2023-04-24T08:17:00;3.47;;;2.10;;
74196;SDS011;62555;52.678;4.900;2023-04-24T08:19:26;3.20;;;2.33;;
74196;SDS011;62555;52.678;4.900;2023-04-24T08:21:51;3.58;;;1.98;;
74196;SDS011;62555;52.678;4.900;2023-04-24T08:24:16;3.97;;;2.40;;
74196;SDS011;62555;52.678;4.900;2023-04-24T08:26:41;2.00;;;1.80;;
74196;SDS011;62555;52.678;4.900;2023-04-24T08:29:07;2.85;;;1.90;;
74196;SDS011;62555;52.678;4.900;2023-04-24T08:31:32;2.67;;;1.90;;
74196;SDS011;62555;52.678;4.900;2023-04-24T08:33:58;2.97;;;1.80;;
74196;SDS011;62555;52.678;4.900;2023-04-24T08:36:24;3.60;;;1.80;;
74196;SDS011;62555;52.678;4.900;2023-04-24T08:38:50;3.10;;;1.98;;
74196;SDS011;62555;52.678;4.900;2023-04-24T08:41:15;3.63;;;2.13;;
74196;SDS011;62555;52.678;4.900;2023-04-24T08:43:42;2.75;;;1.73;;
74196;SDS011;62555;52.678;4.900;2023-04-24T08:46:08;1.98;;;1.70;;
74196;SDS011;62555;52.678;4.900;2023-04-24T08:48:34;3.13;;;2.22;;
74196;SDS011;62555;52.678;4.900;2023-04-24T08:51:00;3.20;;;2.00;;
74196;SDS011;62555;52.678;4.900;2023-04-24T08:53:26;4.53;;;2.20;;
74196;SDS011;62555;52.678;4.900;2023-04-24T08:55:51;2.83;;;1.85;;
74196;SDS011;62555;52.678;4.900;2023-04-24T08:58:18;3.42;;;2.20;;
74196;SDS011;62555;52.678;4.900;2023-04-24T09:00:44;4.90;;;2.08;;
74196;SDS011;62555;52.678;4.900;2023-04-24T09:03:13;3.40;;;2.03;;
74196;SDS011;62555;52.678;4.900;2023-04-24T09:05:38;2.85;;;1.73;;
74196;SDS011;62555;52.678;4.900;2023-04-24T09:10:30;3.55;;;2.20;;
74196;SDS011;62555;52.678;4.900;2023-04-24T09:12:56;2.83;;;1.60;;
74196;SDS011;62555;52.678;4.900;2023-04-24T09:15:21;2.28;;;1.80;;
74196;SDS011;62555;52.678;4.900;2023-04-24T09:17:46;3.93;;;1.83;;
74196;SDS011;62555;52.678;4.900;2023-04-24T09:20:12;4.90;;;1.90;;
74196;SDS011;62555;52.678;4.900;2023-04-24T09:22:37;3.30;;;1.80;;
74196;SDS011;62555;52.678;4.900;2023-04-24T09:25:06;3.10;;;1.70;;
74196;SDS011;62555;52.678;4.900;2023-04-24T09:27:32;3.17;;;2.05;;
74196;SDS011;62555;52.678;4.900;2023-04-24T09:29:58;3.67;;;1.70;;
74196;SDS011;62555;52.678;4.900;2023-04-24T09:32:23;2.65;;;1.80;;
74196;SDS011;62555;52.678;4.900;2023-04-24T09:35:04;2.05;;;1.55;;
74196;SDS011;62555;52.678;4.900;2023-04-24T09:37:29;3.80;;;1.73;;
74196;SDS011;62555;52.678;4.900;2023-04-24T09:42:53;3.58;;;1.85;;
74196;SDS011;62555;52.678;4.900;2023-04-24T09:45:18;4.05;;;1.48;;
74196;SDS011;62555;52.678;4.900;2023-04-24T09:47:43;2.43;;;1.57;;
74196;SDS011;62555;52.678;4.900;2023-04-24T09:50:09;4.07;;;1.97;;
74196;SDS011;62555;52.678;4.900;2023-04-24T09:52:35;2.42;;;1.80;;
74196;SDS011;62555;52.678;4.900;2023-04-24T09:55:00;2.67;;;1.60;;
74196;SDS011;62555;52.678;4.900;2023-04-24T09:57:25;2.40;;;1.73;;
74196;SDS011;62555;52.678;4.900;2023-04-24T09:59:50;3.45;;;1.73;;
74196;SDS011;62555;52.678;4.900;2023-04-24T10:02:18;2.95;;;1.80;;
74196;SDS011;62555;52.678;4.900;2023-04-24T10:04:53;2.40;;;1.60;;
74196;SDS011;62555;52.678;4.900;2023-04-24T10:07:19;5.82;;;2.00;;
74196;SDS011;62555;52.678;4.900;2023-04-24T10:09:44;2.77;;;1.70;;
74196;SDS011;62555;52.678;4.900;2023-04-24T10:12:09;2.00;;;1.60;;
74196;SDS011;62555;52.678;4.900;2023-04-24T10:14:35;2.40;;;1.55;;
74196;SDS011;62555;52.678;4.900;2023-04-24T10:17:01;2.45;;;1.60;;
74196;SDS011;62555;52.678;4.900;2023-04-24T10:19:26;2.15;;;1.48;;
74196;SDS011;62555;52.678;4.900;2023-04-24T10:21:51;2.40;;;1.40;;
74196;SDS011;62555;52.678;4.900;2023-04-24T10:24:18;2.83;;;1.40;;
74196;SDS011;62555;52.678;4.900;2023-04-24T10:26:45;3.08;;;1.45;;
74196;SDS011;62555;52.678;4.900;2023-04-24T10:29:11;2.50;;;1.60;;
74196;SDS011;62555;52.678;4.900;2023-04-24T10:31:37;2.10;;;1.83;;
74196;SDS011;62555;52.678;4.900;2023-04-24T10:34:04;3.60;;;1.75;;
74196;SDS011;62555;52.678;4.900;2023-04-24T10:36:29;3.38;;;1.48;;
74196;SDS011;62555;52.678;4.900;2023-04-24T10:38:57;1.98;;;1.38;;
74196;SDS011;62555;52.678;4.900;2023-04-24T10:41:22;1.60;;;1.20;;
74196;SDS011;62555;52.678;4.900;2023-04-24T10:46:38;2.00;;;1.10;;
74196;SDS011;62555;52.678;4.900;2023-04-24T10:49:04;2.80;;;1.42;;
74196;SDS011;62555;52.678;4.900;2023-04-24T10:51:53;1.90;;;1.40;;
74196;SDS011;62555;52.678;4.900;2023-04-24T10:54:21;2.63;;;1.30;;
74196;SDS011;62555;52.678;4.900;2023-04-24T10:56:46;3.42;;;1.48;;
74196;SDS011;62555;52.678;4.900;2023-04-24T10:59:11;2.80;;;1.37;;
74196;SDS011;62555;52.678;4.900;2023-04-24T11:01:52;3.80;;;1.35;;
74196;SDS011;62555;52.678;4.900;2023-04-24T11:04:21;2.47;;;1.35;;
74196;SDS011;62555;52.678;4.900;2023-04-24T11:06:53;1.95;;;1.20;;
74196;SDS011;62555;52.678;4.900;2023-04-24T11:09:18;2.08;;;1.20;;
74196;SDS011;62555;52.678;4.900;2023-04-24T11:11:45;2.83;;;1.75;;
74196;SDS011;62555;52.678;4.900;2023-04-24T11:14:13;2.47;;;1.10;;
74196;SDS011;62555;52.678;4.900;2023-04-24T11:16:46;1.60;;;1.25;;
74196;SDS011;62555;52.678;4.900;2023-04-24T11:21:55;1.40;;;1.10;;
74196;SDS011;62555;52.678;4.900;2023-04-24T11:26:48;2.40;;;1.40;;
74196;SDS011;62555;52.678;4.900;2023-04-24T11:31:41;2.10;;;1.35;;
74196;SDS011;62555;52.678;4.900;2023-04-24T11:34:07;1.95;;;1.02;;
74196;SDS011;62555;52.678;4.900;2023-04-24T11:36:33;2.58;;;1.10;;
74196;SDS011;62555;52.678;4.900;2023-04-24T11:38:59;2.70;;;1.10;;
74196;SDS011;62555;52.678;4.900;2023-04-24T11:41:24;2.83;;;1.10;;
74196;SDS011;62555;52.678;4.900;2023-04-24T11:43:50;4.45;;;1.13;;
74196;SDS011;62555;52.678;4.900;2023-04-24T11:46:16;3.43;;;1.60;;
74196;SDS011;62555;52.678;4.900;2023-04-24T11:48:44;1.75;;;1.20;;
74196;SDS011;62555;52.678;4.900;2023-04-24T11:51:11;1.45;;;1.15;;
74196;SDS011;62555;52.678;4.900;2023-04-24T11:53:36;2.10;;;1.08;;
74196;SDS011;62555;52.678;4.900;2023-04-24T11:56:02;1.47;;;1.00;;
74196;SDS011;62555;52.678;4.900;2023-04-24T11:58:27;3.45;;;1.40;;
74196;SDS011;62555;52.678;4.900;2023-04-24T12:00:56;2.70;;;0.98;;
74196;SDS011;62555;52.678;4.900;2023-04-24T12:03:22;1.75;;;1.08;;
74196;SDS011;62555;52.678;4.900;2023-04-24T12:05:47;1.20;;;0.80;;
74196;SDS011;62555;52.678;4.900;2023-04-24T12:08:12;1.67;;;0.90;;
74196;SDS011;62555;52.678;4.900;2023-04-24T12:13:16;2.25;;;0.90;;
74196;SDS011;62555;52.678;4.900;2023-04-24T12:15:42;1.40;;;0.75;;
74196;SDS011;62555;52.678;4.900;2023-04-24T12:18:07;3.05;;;1.05;;
74196;SDS011;62555;52.678;4.900;2023-04-24T12:20:36;1.80;;;0.93;;
74196;SDS011;62555;52.678;4.900;2023-04-24T12:23:01;1.83;;;0.90;;
74196;SDS011;62555;52.678;4.900;2023-04-24T12:25:27;1.47;;;0.93;;
74196;SDS011;62555;52.678;4.900;2023-04-24T12:30:31;1.55;;;0.98;;
74196;SDS011;62555;52.678;4.900;2023-04-24T12:32:57;1.75;;;1.10;;
74196;SDS011;62555;52.678;4.900;2023-04-24T12:35:23;2.40;;;1.05;;
74196;SDS011;62555;52.678;4.900;2023-04-24T12:37:48;2.38;;;0.93;;
74196;SDS011;62555;52.678;4.900;2023-04-24T12:40:14;2.97;;;1.20;;
74196;SDS011;62555;52.678;4.900;2023-04-24T12:42:44;2.15;;;1.23;;
74196;SDS011;62555;52.678;4.900;2023-04-24T12:45:09;3.15;;;1.30;;
74196;SDS011;62555;52.678;4.900;2023-04-24T12:47:37;2.85;;;1.02;;
74196;SDS011;62555;52.678;4.900;2023-04-24T12:50:02;2.55;;;0.93;;
74196;SDS011;62555;52.678;4.900;2023-04-24T12:52:28;2.33;;;1.10;;
74196;SDS011;62555;52.678;4.900;2023-04-24T12:54:55;1.75;;;1.25;;
74196;SDS011;62555;52.678;4.900;2023-04-24T12:57:21;4.32;;;1.52;;
74196;SDS011;62555;52.678;4.900;2023-04-24T12:59:46;3.13;;;1.02;;
74196;SDS011;62555;52.678;4.900;2023-04-24T13:02:11;4.07;;;1.40;;
74196;SDS011;62555;52.678;4.900;2023-04-24T13:04:37;3.67;;;1.35;;
74196;SDS011;62555;52.678;4.900;2023-04-24T13:07:02;2.43;;;1.10;;
74196;SDS011;62555;52.678;4.900;2023-04-24T13:09:27;2.72;;;1.20;;
74196;SDS011;62555;52.678;4.900;2023-04-24T13:11:52;2.75;;;0.90;;
74196;SDS011;62555;52.678;4.900;2023-04-24T13:14:18;3.80;;;1.30;;
74196;SDS011;62555;52.678;4.900;2023-04-24T13:16:43;3.27;;;1.20;;
74196;SDS011;62555;52.678;4.900;2023-04-24T13:19:08;3.58;;;1.50;;
74196;SDS011;62555;52.678;4.900;2023-04-24T13:21:33;1.80;;;1.10;;
74196;SDS011;62555;52.678;4.900;2023-04-24T13:23:58;3.23;;;1.43;;
74196;SDS011;62555;52.678;4.900;2023-04-24T13:26:23;2.67;;;0.90;;
74196;SDS011;62555;52.678;4.900;2023-04-24T13:28:49;2.77;;;1.30;;
74196;SDS011;62555;52.678;4.900;2023-04-24T13:31:14;3.67;;;1.27;;
74196;SDS011;62555;52.678;4.900;2023-04-24T13:33:39;2.15;;;1.10;;
74196;SDS011;62555;52.678;4.900;2023-04-24T13:36:05;5.07;;;1.83;;
74196;SDS011;62555;52.678;4.900;2023-04-24T13:38:30;4.38;;;1.27;;
74196;SDS011;62555;52.678;4.900;2023-04-24T13:40:55;4.22;;;1.63;;
74196;SDS011;62555;52.678;4.900;2023-04-24T13:43:20;4.13;;;1.27;;
74196;SDS011;62555;52.678;4.900;2023-04-24T13:45:46;4.68;;;1.50;;
74196;SDS011;62555;52.678;4.900;2023-04-24T13:48:11;4.33;;;1.30;;
74196;SDS011;62555;52.678;4.900;2023-04-24T13:50:36;3.87;;;1.30;;
74196;SDS011;62555;52.678;4.900;2023-04-24T13:53:02;2.35;;;1.25;;
74196;SDS011;62555;52.678;4.900;2023-04-24T13:55:27;3.10;;;1.17;;
74196;SDS011;62555;52.678;4.900;2023-04-24T13:57:52;3.93;;;1.30;;
74196;SDS011;62555;52.678;4.900;2023-04-24T14:00:19;2.10;;;0.90;;
74196;SDS011;62555;52.678;4.900;2023-04-24T14:02:45;3.33;;;1.40;;
74196;SDS011;62555;52.678;4.900;2023-04-24T14:05:10;5.90;;;1.57;;
74196;SDS011;62555;52.678;4.900;2023-04-24T14:07:36;2.90;;;1.27;;
74196;SDS011;62555;52.678;4.900;2023-04-24T14:10:01;3.07;;;1.37;;
74196;SDS011;62555;52.678;4.900;2023-04-24T14:12:26;4.97;;;1.73;;
74196;SDS011;62555;52.678;4.900;2023-04-24T14:14:52;2.92;;;1.30;;
74196;SDS011;62555;52.678;4.900;2023-04-24T14:17:17;3.33;;;1.50;;
74196;SDS011;62555;52.678;4.900;2023-04-24T14:19:42;3.08;;;1.30;;
74196;SDS011;62555;52.678;4.900;2023-04-24T14:22:07;4.17;;;1.40;;
74196;SDS011;62555;52.678;4.900;2023-04-24T14:24:32;2.57;;;1.43;;
74196;SDS011;62555;52.678;4.900;2023-04-24T14:26:57;3.10;;;1.20;;
74196;SDS011;62555;52.678;4.900;2023-04-24T14:29:23;4.30;;;1.40;;
74196;SDS011;62555;52.678;4.900;2023-04-24T14:31:49;3.45;;;1.40;;
74196;SDS011;62555;52.678;4.900;2023-04-24T14:34:14;3.80;;;1.73;;
74196;SDS011;62555;52.678;4.900;2023-04-24T14:36:40;4.40;;;1.77;;
74196;SDS011;62555;52.678;4.900;2023-04-24T14:39:05;2.73;;;1.20;;
74196;SDS011;62555;52.678;4.900;2023-04-24T14:41:31;3.67;;;1.27;;
74196;SDS011;62555;52.678;4.900;2023-04-24T14:43:56;3.17;;;1.60;;
74196;SDS011;62555;52.678;4.900;2023-04-24T14:46:21;1.63;;;1.20;;
74196;SDS011;62555;52.678;4.900;2023-04-24T14:48:47;3.23;;;1.40;;
74196;SDS011;62555;52.678;4.900;2023-04-24T14:51:12;4.93;;;1.67;;
74196;SDS011;62555;52.678;4.900;2023-04-24T14:53:37;4.77;;;1.60;;
74196;SDS011;62555;52.678;4.900;2023-04-24T14:56:02;4.65;;;1.40;;
74196;SDS011;62555;52.678;4.900;2023-04-24T14:58:27;3.30;;;1.43;;
74196;SDS011;62555;52.678;4.900;2023-04-24T15:00:53;3.78;;;1.85;;